Cerro Cora, Brazil
Current Conditions -  °F | °C
As of 12:00 AM on Thursday 23 Oct 2014 (Local Time) from SBNT Reporting Station
Few Clouds Few Clouds  
Wind Chill: 77°   Ceiling: Unl
Heat Index: 79°   Visibility: 6mi
Dew Point: 68°   Wind: 12mph
Humidity: 74%   Direction: 130°SE
Pressure: 29.97"   Gusts: NA
Location:  6.05°S, 36.35°W
Report Text: SBNT 230300Z 13010KT 9999 FEW020 25/20 Q1015
Loading
Personal Weather Stations






























Interactive Weather Map
Tropical Storm Tracking
New forecast layout! Learn more

10-Day Weather Forecast

Advertisements
Track Severe Weather on mobile